Holy Cross — WDE7144 — position and weather

sailwx.info

Track history (hours):
 
Tides and Currents Weather Stations Pressure Air Temp Water Temp Dewpoint Dewpoint Depression Visibility Wind Speed Wind Dir Waves Ship Positions

Holy Cross

Owner: Marquette Transportation Company Gulf-Inland, LLC, Jefferson, LA. More information available from US FCC via Universal Licensing System and Coast Guard Vessel Documentation Center.

Last reported at 2017-Nov-24 11:30 UTC. Time now 2017-Nov-24 11:44 UTC.
Position N 29°40' W 094°59'.

Length 309 m; draft 2.7 m.

Type: . MMSI: 367389540.

Date/timePositionNaut miles runAvg speedWind from/ knotsBaromVisibWave heightAir tempDewpointWater temp
2017-Nov-24 11:30N 29°40' W 094°59'2 4.5
2017-Nov-24 11:00N 29°42' W 095°00'2 4.0
2017-Nov-24 10:26N 29°44' W 095°02'2 4.2
2017-Nov-24 09:57N 29°45' W 095°04'2 0.8
2017-Nov-24 07:25N 29°46' W 095°06'1 2.2
2017-Nov-24 06:44N 29°47' W 095°04'0 0.0
2017-Nov-24 05:57N 29°47' W 095°04'0 0.4
2017-Nov-24 05:18N 29°47' W 095°04'0 0.6
2017-Nov-24 04:58N 29°47' W 095°04'0 0.3
2017-Nov-24 04:28N 29°47' W 095°05'0 0.6
2017-Nov-24 03:51N 29°47' W 095°05'1 2.3
2017-Nov-24 03:30N 29°46' W 095°04'2 4.8
2017-Nov-24 02:59N 29°44' W 095°02'2 4.5
2017-Nov-24 02:30N 29°42' W 095°01'3 5.4
2017-Nov-24 02:00N 29°40' W 094°59'3 5.9
2017-Nov-24 01:30N 29°38' W 094°58'3 5.6
2017-Nov-24 01:01N 29°35' W 094°56'3 5.7
2017-Nov-24 00:30N 29°33' W 094°54'3 6.1
2017-Nov-24 00:01N 29°30' W 094°52'67 4.1
2017-Nov-23 07:48N 30°02' W 093°44'2 5.1
2017-Nov-23 07:30N 30°03' W 093°43'2 3.5
2017-Nov-23 06:58N 30°04' W 093°41'1 2.5
2017-Nov-23 06:30N 30°04' W 093°40'2 4.9
2017-Nov-23 06:00N 30°04' W 093°37'2 4.9
2017-Nov-23 05:30N 30°04' W 093°34'2 4.9
2017-Nov-23 05:00N 30°04' W 093°31'2 4.9
2017-Nov-23 04:30N 30°04' W 093°29'2 4.3
2017-Nov-23 04:00N 30°04' W 093°26'2 4.2
2017-Nov-23 03:30N 30°04' W 093°24'2 4.0
2017-Nov-23 03:00N 30°04' W 093°21'2 2.9
2017-Nov-23 02:29N 30°05' W 093°20'2 3.3
2017-Nov-23 01:59N 30°06' W 093°19'1 2.0
2017-Nov-23 01:30N 30°06' W 093°18'1 2.1
2017-Nov-23 01:00N 30°05' W 093°17'1 1.4
2017-Nov-23 00:30N 30°04' W 093°16'0 0.0
2017-Nov-23 00:00N 30°04' W 093°16'0 0.0
2017-Nov-22 23:30N 30°04' W 093°16'0 0.0
2017-Nov-22 22:57N 30°04' W 093°16'0 0.1
2017-Nov-22 22:30N 30°04' W 093°16'0 0.1
2017-Nov-22 22:00N 30°04' W 093°16'0 0.0
2017-Nov-22 21:31N 30°04' W 093°16'0 0.0
2017-Nov-22 21:01N 30°04' W 093°16'0 0.0
2017-Nov-22 20:30N 30°04' W 093°16'0 0.0
2017-Nov-22 20:00N 30°04' W 093°16'0 0.0
2017-Nov-22 19:30N 30°04' W 093°16'  
2017-Nov-15 12:42N 29°51' W 091°54'1 4.5
2017-Nov-15 12:29N 29°51' W 091°55'2 4.4
2017-Nov-15 11:57N 29°50' W 091°58'2 4.4
2017-Nov-15 11:30N 29°50' W 092°00'2 4.5
2017-Nov-15 11:01N 29°49' W 092°03'2 4.5
2017-Nov-15 10:30N 29°48' W 092°05'2 4.6
2017-Nov-15 10:00N 29°47' W 092°08'2 4.1
2017-Nov-15 09:31N 29°47' W 092°10'2 3.6
2017-Nov-15 09:01N 29°47' W 092°12'1 1.5
2017-Nov-15 08:31N 29°47' W 092°13'1 2.7
2017-Nov-15 08:00N 29°48' W 092°14'0 0.1
2017-Nov-15 07:30N 29°48' W 092°14'1 2.7
2017-Nov-15 07:01N 29°48' W 092°16'2 3.8
2017-Nov-15 06:30N 29°49' W 092°18'2 3.6
2017-Nov-15 06:00N 29°50' W 092°19'2 3.8
2017-Nov-15 05:27N 29°51' W 092°22'3 3.7
2017-Nov-15 04:46N 29°53' W 092°23'33 3.9
2017-Nov-14 20:06N 29°56' W 093°02'0 3.8
2017-Nov-14 20:00N 29°56' W 093°02'2 3.3
2017-Nov-14 19:30N 29°56' W 093°04'2 3.5
2017-Nov-14 19:00N 29°56' W 093°06'2 3.8
2017-Nov-14 18:30N 29°56' W 093°08'2 3.5
2017-Nov-14 18:00N 29°57' W 093°10'2 4.0
2017-Nov-14 17:31N 29°58' W 093°12'2 4.1
2017-Nov-14 17:00N 29°60' W 093°13'2 3.7
2017-Nov-14 16:31N 30°02' W 093°14'2 3.3
2017-Nov-14 16:00N 30°03' W 093°16'2 3.7
2017-Nov-14 15:30N 30°04' W 093°16'2 3.1
2017-Nov-14 15:00N 30°05' W 093°18'1 1.6
2017-Nov-14 14:31N 30°06' W 093°18'0 0.3
2017-Nov-14 13:59N 30°06' W 093°18'0 0.1
2017-Nov-14 13:30N 30°06' W 093°18'0 0.0
2017-Nov-14 13:00N 30°06' W 093°18'0 0.1
2017-Nov-14 12:30N 30°06' W 093°18'1 1.4
2017-Nov-14 11:51N 30°06' W 093°19'  
Track history (hours):
 
Tides and Currents Weather Stations Pressure Air Temp Water Temp Dewpoint Dewpoint Depression Visibility Wind Speed Wind Dir Waves Ship Positions

Holy Cross

Owner: Marquette Transportation Company Gulf-Inland, LLC, Jefferson, LA. More information available from US FCC via Universal Licensing System and Coast Guard Vessel Documentation Center.

Last reported at 2017-Nov-24 11:30 UTC. Time now 2017-Nov-24 11:44 UTC.
Position N 29°40' W 094°59'.

Length 309 m; draft 2.7 m.

Type: . MMSI: 367389540.

Date/timePositionNaut miles runAvg speedWind from/ knotsBaromVisibWave heightAir tempDewpointWater temp
2017-Nov-24 11:30N 29°40' W 094°59'2 4.5
2017-Nov-24 11:00N 29°42' W 095°00'2 4.0
2017-Nov-24 10:26N 29°44' W 095°02'2 4.2
2017-Nov-24 09:57N 29°45' W 095°04'2 0.8
2017-Nov-24 07:25N 29°46' W 095°06'1 2.2
2017-Nov-24 06:44N 29°47' W 095°04'0 0.0
2017-Nov-24 05:57N 29°47' W 095°04'0 0.4
2017-Nov-24 05:18N 29°47' W 095°04'0 0.6
2017-Nov-24 04:58N 29°47' W 095°04'0 0.3
2017-Nov-24 04:28N 29°47' W 095°05'0 0.6
2017-Nov-24 03:51N 29°47' W 095°05'1 2.3
2017-Nov-24 03:30N 29°46' W 095°04'2 4.8
2017-Nov-24 02:59N 29°44' W 095°02'2 4.5
2017-Nov-24 02:30N 29°42' W 095°01'3 5.4
2017-Nov-24 02:00N 29°40' W 094°59'3 5.9
2017-Nov-24 01:30N 29°38' W 094°58'3 5.6
2017-Nov-24 01:01N 29°35' W 094°56'3 5.7
2017-Nov-24 00:30N 29°33' W 094°54'3 6.1
2017-Nov-24 00:01N 29°30' W 094°52'67 4.1
2017-Nov-23 07:48N 30°02' W 093°44'2 5.1
2017-Nov-23 07:30N 30°03' W 093°43'2 3.5
2017-Nov-23 06:58N 30°04' W 093°41'1 2.5
2017-Nov-23 06:30N 30°04' W 093°40'2 4.9
2017-Nov-23 06:00N 30°04' W 093°37'2 4.9
2017-Nov-23 05:30N 30°04' W 093°34'2 4.9
2017-Nov-23 05:00N 30°04' W 093°31'2 4.9
2017-Nov-23 04:30N 30°04' W 093°29'2 4.3
2017-Nov-23 04:00N 30°04' W 093°26'2 4.2
2017-Nov-23 03:30N 30°04' W 093°24'2 4.0
2017-Nov-23 03:00N 30°04' W 093°21'2 2.9
2017-Nov-23 02:29N 30°05' W 093°20'2 3.3
2017-Nov-23 01:59N 30°06' W 093°19'1 2.0
2017-Nov-23 01:30N 30°06' W 093°18'1 2.1
2017-Nov-23 01:00N 30°05' W 093°17'1 1.4
2017-Nov-23 00:30N 30°04' W 093°16'0 0.0
2017-Nov-23 00:00N 30°04' W 093°16'0 0.0
2017-Nov-22 23:30N 30°04' W 093°16'0 0.0
2017-Nov-22 22:57N 30°04' W 093°16'0 0.1
2017-Nov-22 22:30N 30°04' W 093°16'0 0.1
2017-Nov-22 22:00N 30°04' W 093°16'0 0.0
2017-Nov-22 21:31N 30°04' W 093°16'0 0.0
2017-Nov-22 21:01N 30°04' W 093°16'0 0.0
2017-Nov-22 20:30N 30°04' W 093°16'0 0.0
2017-Nov-22 20:00N 30°04' W 093°16'0 0.0
2017-Nov-22 19:30N 30°04' W 093°16'  
2017-Nov-15 12:42N 29°51' W 091°54'1 4.5
2017-Nov-15 12:29N 29°51' W 091°55'2 4.4
2017-Nov-15 11:57N 29°50' W 091°58'2 4.4
2017-Nov-15 11:30N 29°50' W 092°00'2 4.5
2017-Nov-15 11:01N 29°49' W 092°03'2 4.5
2017-Nov-15 10:30N 29°48' W 092°05'2 4.6
2017-Nov-15 10:00N 29°47' W 092°08'2 4.1
2017-Nov-15 09:31N 29°47' W 092°10'2 3.6
2017-Nov-15 09:01N 29°47' W 092°12'1 1.5
2017-Nov-15 08:31N 29°47' W 092°13'1 2.7
2017-Nov-15 08:00N 29°48' W 092°14'0 0.1
2017-Nov-15 07:30N 29°48' W 092°14'1 2.7
2017-Nov-15 07:01N 29°48' W 092°16'2 3.8
2017-Nov-15 06:30N 29°49' W 092°18'2 3.6
2017-Nov-15 06:00N 29°50' W 092°19'2 3.8
2017-Nov-15 05:27N 29°51' W 092°22'3 3.7
2017-Nov-15 04:46N 29°53' W 092°23'33 3.9
2017-Nov-14 20:06N 29°56' W 093°02'0 3.8
2017-Nov-14 20:00N 29°56' W 093°02'2 3.3
2017-Nov-14 19:30N 29°56' W 093°04'2 3.5
2017-Nov-14 19:00N 29°56' W 093°06'2 3.8
2017-Nov-14 18:30N 29°56' W 093°08'2 3.5
2017-Nov-14 18:00N 29°57' W 093°10'2 4.0
2017-Nov-14 17:31N 29°58' W 093°12'2 4.1
2017-Nov-14 17:00N 29°60' W 093°13'2 3.7
2017-Nov-14 16:31N 30°02' W 093°14'2 3.3
2017-Nov-14 16:00N 30°03' W 093°16'2 3.7
2017-Nov-14 15:30N 30°04' W 093°16'2 3.1
2017-Nov-14 15:00N 30°05' W 093°18'1 1.6
2017-Nov-14 14:31N 30°06' W 093°18'0 0.3
2017-Nov-14 13:59N 30°06' W 093°18'0 0.1
2017-Nov-14 13:30N 30°06' W 093°18'0 0.0
2017-Nov-14 13:00N 30°06' W 093°18'0 0.1
2017-Nov-14 12:30N 30°06' W 093°18'1 1.4
2017-Nov-14 11:51N 30°06' W 093°19'  

Dump ship's entire track history